Time;durP1;ratioP1;P1;durP2;ratioP2;P2;SDS_P1;SDS_P2;PMS_P1;PMS_P2;Temp;Humidity;BMP_temperature;BMP_pressure;BME280_temperature;BME280_humidity;BME280_pressure;Samples;Min_cycle;Max_cycle;Signal;HPM_P1;HPM_P2
2023/02/05 00:04:00;;;;;;;7.97;4.63;;;;;;;;;;10458737;28;20656;-75
2023/02/05 00:09:01;;;;;;;4.03;3.63;;;;;;;;;;10469425;28;20178;-75
2023/02/05 00:14:01;;;;;;;6.47;4.75;;;;;;;;;;10469635;28;20414;-76
2023/02/05 00:19:01;;;;;;;8.30;4.60;;;;;;;;;;10487229;28;20032;-72
2023/02/05 00:24:02;;;;;;;6.50;3.40;;;;;;;;;;10468937;28;20031;-72
2023/02/05 00:29:02;;;;;;;3.33;2.57;;;;;;;;;;10468646;28;20076;-73
2023/02/05 00:34:02;;;;;;;9.77;4.90;;;;;;;;;;10468527;28;20017;-75
2023/02/05 00:39:02;;;;;;;5.38;3.83;;;;;;;;;;10467742;28;20023;-71
2023/02/05 00:44:03;;;;;;;4.70;3.63;;;;;;;;;;10467629;28;20024;-75
2023/02/05 00:49:03;;;;;;;4.90;4.00;;;;;;;;;;10467252;28;20685;-70
2023/02/05 00:54:04;;;;;;;4.15;3.75;;;;;;;;;;10467831;28;20021;-73
2023/02/05 00:59:04;;;;;;;4.07;3.23;;;;;;;;;;10466705;28;20234;-72
2023/02/05 01:04:04;;;;;;;5.82;4.30;;;;;;;;;;10466614;28;20267;-76
2023/02/05 01:09:05;;;;;;;6.43;4.22;;;;;;;;;;10467103;28;20036;-72
2023/02/05 01:14:05;;;;;;;6.33;3.63;;;;;;;;;;10466999;28;20109;-72
2023/02/05 01:19:05;;;;;;;9.48;3.63;;;;;;;;;;10465993;28;20020;-75
2023/02/05 01:24:05;;;;;;;6.40;4.28;;;;;;;;;;10459867;28;20032;-76
2023/02/05 01:29:06;;;;;;;7.43;4.70;;;;;;;;;;10441634;28;20025;-75
2023/02/05 01:34:06;;;;;;;6.82;3.80;;;;;;;;;;10466636;28;20020;-76
2023/02/05 01:39:06;;;;;;;6.13;4.97;;;;;;;;;;10484303;28;20028;-76
2023/02/05 01:44:11;;;;;;;5.40;4.53;;;;;;;;;;10465476;28;20406;-74
2023/02/05 01:49:18;;;;;;;9.48;4.38;;;;;;;;;;10465834;28;20043;-73
2023/02/05 01:54:19;;;;;;;4.22;3.88;;;;;;;;;;10465813;28;20017;-76
2023/02/05 01:59:25;;;;;;;4.35;3.35;;;;;;;;;;10465432;28;20024;-73
2023/02/05 02:04:36;;;;;;;9.05;5.07;;;;;;;;;;10477829;28;20036;-74
2023/02/05 02:09:37;;;;;;;11.27;4.50;;;;;;;;;;10465431;28;20028;-74
2023/02/05 02:14:39;;;;;;;6.90;4.28;;;;;;;;;;10465068;28;20383;-78
2023/02/05 02:19:48;;;;;;;6.13;4.53;;;;;;;;;;10426908;28;20073;-74
2023/02/05 02:24:49;;;;;;;5.63;4.22;;;;;;;;;;10462687;28;20463;-75
2023/02/05 02:30:10;;;;;;;5.97;4.53;;;;;;;;;;10470817;28;20028;-76
2023/02/05 02:35:20;;;;;;;12.38;4.63;;;;;;;;;;10472371;28;20013;-72
2023/02/05 02:40:24;;;;;;;5.60;3.97;;;;;;;;;;10472543;28;20493;-75
2023/02/05 02:45:26;;;;;;;7.90;5.78;;;;;;;;;;10472332;28;20441;-72
2023/02/05 02:50:35;;;;;;;5.53;4.10;;;;;;;;;;10490241;28;20040;-75
2023/02/05 02:55:36;;;;;;;7.00;5.20;;;;;;;;;;10455193;28;20036;-72
2023/02/05 03:00:38;;;;;;;7.13;5.00;;;;;;;;;;10466661;28;20500;-76
2023/02/05 03:05:40;;;;;;;8.32;5.03;;;;;;;;;;10471781;28;20025;-75
2023/02/05 03:10:41;;;;;;;5.80;4.35;;;;;;;;;;10472012;28;20032;-75
2023/02/05 03:15:42;;;;;;;6.25;5.55;;;;;;;;;;10471823;28;20016;-74
2023/02/05 03:21:09;;;;;;;5.40;4.43;;;;;;;;;;10491996;22;20090;-77
2023/02/05 03:26:26;;;;;;;2.83;2.58;;;;;;;;;;10468548;28;20035;-76
2023/02/05 03:31:26;;;;;;;6.80;6.28;;;;;;;;;;10471195;28;20020;-77
2023/02/05 03:36:41;;;;;;;4.38;3.97;;;;;;;;;;10470724;28;20020;-76
2023/02/05 03:41:54;;;;;;;8.10;5.38;;;;;;;;;;10467699;28;20031;-73
2023/02/05 03:47:00;;;;;;;10.60;5.88;;;;;;;;;;10470381;28;20036;-74
2023/02/05 03:52:11;;;;;;;6.85;5.82;;;;;;;;;;10470050;28;20040;-76
2023/02/05 03:57:19;;;;;;;11.50;6.43;;;;;;;;;;10470373;28;20029;-75
2023/02/05 04:02:20;;;;;;;4.53;4.10;;;;;;;;;;10469622;28;20035;-77
2023/02/05 04:07:21;;;;;;;6.85;4.88;;;;;;;;;;10487410;28;20066;-73
2023/02/05 04:12:21;;;;;;;5.50;3.90;;;;;;;;;;10469294;28;20108;-73
2023/02/05 04:17:21;;;;;;;8.73;6.18;;;;;;;;;;10454810;28;20028;-75
2023/02/05 04:22:21;;;;;;;7.78;5.05;;;;;;;;;;10456731;28;20056;-74
2023/02/05 04:27:22;;;;;;;6.20;4.03;;;;;;;;;;10465662;28;20048;-75
2023/02/05 04:32:22;;;;;;;6.03;5.05;;;;;;;;;;10464814;28;20017;-74
2023/02/05 04:37:23;;;;;;;8.18;6.07;;;;;;;;;;10456736;28;20111;-75
2023/02/05 04:42:24;;;;;;;5.43;4.93;;;;;;;;;;10445373;28;20017;-74
2023/02/05 04:47:24;;;;;;;6.68;6.07;;;;;;;;;;10466863;28;20020;-75
2023/02/05 04:52:24;;;;;;;7.15;6.55;;;;;;;;;;10462412;28;20025;-74
2023/02/05 04:57:24;;;;;;;8.68;7.88;;;;;;;;;;10460411;28;20023;-77
2023/02/05 05:02:25;;;;;;;9.85;8.85;;;;;;;;;;10473343;28;20035;-71
2023/02/05 05:07:28;;;;;;;8.02;7.22;;;;;;;;;;10466126;28;20510;-71
2023/02/05 05:12:28;;;;;;;8.85;6.90;;;;;;;;;;10459010;28;20052;-73
2023/02/05 05:17:28;;;;;;;7.35;5.80;;;;;;;;;;10475387;28;20107;-75
2023/02/05 05:22:28;;;;;;;4.93;4.47;;;;;;;;;;10483438;28;20065;-71
2023/02/05 05:27:29;;;;;;;6.65;4.45;;;;;;;;;;10482868;28;20486;-73
2023/02/05 05:32:29;;;;;;;6.15;5.20;;;;;;;;;;10462553;28;20039;-73
2023/02/05 05:37:29;;;;;;;6.65;5.10;;;;;;;;;;10454460;28;20025;-72
2023/02/05 05:47:48;;;;;;;8.55;5.90;;;;;;;;;;10471263;28;20445;-79
2023/02/05 05:52:49;;;;;;;5.20;4.35;;;;;;;;;;10453960;28;20024;-76
2023/02/05 05:57:49;;;;;;;5.72;5.10;;;;;;;;;;10480791;28;20495;-74
2023/02/05 06:02:49;;;;;;;5.88;5.28;;;;;;;;;;10459074;28;20604;-74
2023/02/05 06:07:49;;;;;;;6.72;5.57;;;;;;;;;;10461541;28;20391;-75
2023/02/05 06:12:51;;;;;;;10.13;6.22;;;;;;;;;;10457186;28;20016;-74
2023/02/05 06:17:52;;;;;;;7.47;6.47;;;;;;;;;;10459060;28;20055;-76
2023/02/05 06:22:52;;;;;;;8.40;7.13;;;;;;;;;;10445085;28;20147;-75
2023/02/05 06:27:52;;;;;;;6.85;6.13;;;;;;;;;;10446664;28;20337;-76
2023/02/05 06:32:52;;;;;;;12.70;7.60;;;;;;;;;;10389550;28;20021;-76
2023/02/05 06:37:53;;;;;;;6.03;5.28;;;;;;;;;;10445960;28;20012;-76
2023/02/05 06:42:53;;;;;;;9.60;7.90;;;;;;;;;;10465310;28;20024;-76
2023/02/05 06:47:54;;;;;;;22.42;6.28;;;;;;;;;;10453524;28;20090;-76
2023/02/05 06:52:55;;;;;;;7.53;5.40;;;;;;;;;;10426396;28;20024;-75
2023/02/05 06:57:55;;;;;;;8.38;5.85;;;;;;;;;;10434917;28;20099;-75
2023/02/05 07:02:56;;;;;;;12.68;5.40;;;;;;;;;;10430801;28;20056;-72
2023/02/05 07:08:00;;;;;;;14.07;6.13;;;;;;;;;;10411237;28;20033;-83
2023/02/05 07:13:00;;;;;;;8.05;4.82;;;;;;;;;;10399675;28;20037;-73
2023/02/05 07:18:00;;;;;;;11.18;5.30;;;;;;;;;;10405342;28;20036;-72
2023/02/05 07:23:00;;;;;;;8.73;4.95;;;;;;;;;;10400339;28;20191;-77
2023/02/05 07:28:01;;;;;;;13.05;7.03;;;;;;;;;;10405231;28;20029;-76
2023/02/05 07:33:02;;;;;;;10.32;6.30;;;;;;;;;;10399397;28;20654;-71
2023/02/05 07:38:02;;;;;;;10.27;5.35;;;;;;;;;;10401856;28;20049;-72
2023/02/05 07:43:03;;;;;;;10.65;5.97;;;;;;;;;;10408420;28;20036;-74
2023/02/05 07:48:03;;;;;;;7.35;5.18;;;;;;;;;;10403388;28;20106;-76
2023/02/05 07:53:03;;;;;;;10.10;5.97;;;;;;;;;;10402996;28;20600;-75
2023/02/05 07:58:04;;;;;;;9.07;5.30;;;;;;;;;;10402400;28;20271;-72
2023/02/05 08:03:04;;;;;;;7.68;5.32;;;;;;;;;;10410559;28;20033;-74
2023/02/05 08:08:05;;;;;;;11.02;5.55;;;;;;;;;;10422455;28;20029;-73
2023/02/05 08:13:05;;;;;;;7.07;4.68;;;;;;;;;;10399642;28;20032;-76
2023/02/05 08:18:05;;;;;;;12.75;5.68;;;;;;;;;;10397519;28;20109;-71
2023/02/05 08:23:05;;;;;;;8.07;6.05;;;;;;;;;;10413720;28;20099;-70
2023/02/05 08:28:06;;;;;;;9.30;5.07;;;;;;;;;;10416206;28;20107;-72
2023/02/05 08:33:06;;;;;;;12.57;5.43;;;;;;;;;;10397846;28;20079;-70
2023/02/05 08:38:06;;;;;;;12.93;4.43;;;;;;;;;;10397154;28;20264;-70
2023/02/05 08:43:07;;;;;;;16.95;4.80;;;;;;;;;;10415341;28;20343;-75
2023/02/05 08:48:07;;;;;;;6.95;3.20;;;;;;;;;;10421875;28;20033;-76
2023/02/05 08:53:07;;;;;;;11.32;2.80;;;;;;;;;;10440355;28;20494;-72
2023/02/05 08:58:08;;;;;;;6.43;2.08;;;;;;;;;;10423076;28;20017;-75
2023/02/05 09:03:08;;;;;;;3.05;1.90;;;;;;;;;;10432800;28;20055;-73
2023/02/05 09:08:08;;;;;;;3.45;2.25;;;;;;;;;;10436916;28;20486;-72
2023/02/05 09:13:08;;;;;;;7.28;2.90;;;;;;;;;;10435774;28;20376;-73
2023/02/05 09:18:09;;;;;;;3.58;2.00;;;;;;;;;;10437596;28;20025;-72
2023/02/05 09:23:10;;;;;;;3.50;2.27;;;;;;;;;;10418533;28;20149;-73
2023/02/05 09:28:12;;;;;;;4.53;2.55;;;;;;;;;;10438696;28;20260;-72
2023/02/05 09:33:12;;;;;;;8.55;2.63;;;;;;;;;;10429457;28;20033;-75
2023/02/05 09:38:13;;;;;;;2.72;1.67;;;;;;;;;;10438089;28;20505;-77
2023/02/05 09:43:32;;;;;;;3.80;1.63;;;;;;;;;;10441500;28;20017;-72
2023/02/05 09:48:48;;;;;;;11.65;3.63;;;;;;;;;;10440486;28;20075;-73
2023/02/05 09:53:54;;;;;;;8.02;2.83;;;;;;;;;;10436542;28;20780;-71
2023/02/05 09:58:56;;;;;;;6.90;2.97;;;;;;;;;;10435872;28;20025;-73
2023/02/05 10:04:01;;;;;;;3.85;2.70;;;;;;;;;;10426061;28;20392;-73
2023/02/05 10:09:28;;;;;;;13.00;2.67;;;;;;;;;;10438111;28;20029;-76
2023/02/05 10:14:28;;;;;;;5.95;2.58;;;;;;;;;;10406117;28;20033;-70
2023/02/05 10:19:44;;;;;;;6.25;2.60;;;;;;;;;;10438749;28;20531;-75
2023/02/05 10:25:05;;;;;;;2.83;1.92;;;;;;;;;;10458533;28;20043;-72
2023/02/05 10:30:20;;;;;;;5.88;2.00;;;;;;;;;;10459581;28;20413;-73
2023/02/05 10:35:23;;;;;;;4.80;2.15;;;;;;;;;;10460414;28;20108;-76
2023/02/05 10:40:38;;;;;;;1.92;1.58;;;;;;;;;;10454533;28;20445;-73
2023/02/05 10:45:38;;;;;;;3.47;2.10;;;;;;;;;;10455601;28;20110;-73
2023/02/05 10:50:48;;;;;;;7.88;2.08;;;;;;;;;;10470169;28;20031;-72
2023/02/05 10:55:48;;;;;;;2.58;1.63;;;;;;;;;;10463658;28;20135;-69
2023/02/05 11:00:49;;;;;;;4.43;1.75;;;;;;;;;;10477490;28;20391;-77
2023/02/05 11:05:49;;;;;;;2.92;1.75;;;;;;;;;;10463627;28;20079;-69
2023/02/05 11:10:51;;;;;;;5.90;2.80;;;;;;;;;;10460279;28;20028;-70
2023/02/05 11:15:56;;;;;;;8.18;2.42;;;;;;;;;;10449414;28;20103;-72
2023/02/05 11:20:58;;;;;;;3.85;1.60;;;;;;;;;;10459371;28;20122;-70
2023/02/05 11:26:00;;;;;;;7.43;3.33;;;;;;;;;;10482422;28;20035;-81
2023/02/05 11:31:19;;;;;;;4.72;2.40;;;;;;;;;;10473079;28;20066;-75
2023/02/05 11:36:23;;;;;;;4.22;1.92;;;;;;;;;;10436153;28;20025;-75
2023/02/05 11:41:28;;;;;;;4.93;1.77;;;;;;;;;;10405249;28;20025;-76
2023/02/05 11:46:39;;;;;;;3.20;2.13;;;;;;;;;;10416187;28;20032;-78
2023/02/05 11:51:47;;;;;;;4.70;2.17;;;;;;;;;;10416485;28;20556;-70
2023/02/05 11:56:59;;;;;;;2.65;1.55;;;;;;;;;;10411961;28;20025;-71
2023/02/05 12:02:18;;;;;;;3.65;2.10;;;;;;;;;;10417910;28;20122;-76
2023/02/05 12:07:20;;;;;;;5.10;2.40;;;;;;;;;;10410727;28;20024;-74
2023/02/05 12:12:36;;;;;;;6.18;1.77;;;;;;;;;;10408647;28;20041;-70
2023/02/05 12:17:41;;;;;;;6.72;1.95;;;;;;;;;;10414434;28;20376;-75
2023/02/05 12:22:41;;;;;;;3.78;1.50;;;;;;;;;;10419820;28;20057;-80
2023/02/05 12:28:00;;;;;;;3.80;2.15;;;;;;;;;;10416973;28;20029;-71
2023/02/05 12:33:00;;;;;;;7.97;2.53;;;;;;;;;;10404091;28;20033;-71
2023/02/05 12:38:13;;;;;;;3.33;2.00;;;;;;;;;;10416070;28;20120;-76
2023/02/05 12:43:32;;;;;;;5.82;1.85;;;;;;;;;;10414810;28;20042;-72
2023/02/05 12:48:39;;;;;;;4.70;2.13;;;;;;;;;;10416344;28;20021;-72
2023/02/05 12:54:18;;;;;;;6.63;2.50;;;;;;;;;;10423192;28;20021;-75
2023/02/05 12:59:33;;;;;;;5.18;3.20;;;;;;;;;;10325489;28;20637;-74
2023/02/05 13:04:37;;;;;;;4.63;3.30;;;;;;;;;;10398165;28;20486;-72
2023/02/05 13:09:48;;;;;;;9.35;3.70;;;;;;;;;;10421303;28;20029;-78
2023/02/05 13:14:51;;;;;;;6.43;3.67;;;;;;;;;;10400205;28;20025;-74
2023/02/05 13:19:55;;;;;;;10.48;4.18;;;;;;;;;;10412814;28;20398;-77
2023/02/05 13:30:30;;;;;;;8.73;4.72;;;;;;;;;;10424993;28;20032;-73
2023/02/05 13:35:32;;;;;;;5.88;4.40;;;;;;;;;;10405072;28;20465;-70
2023/02/05 13:40:32;;;;;;;8.82;5.30;;;;;;;;;;10394883;28;20029;-70
2023/02/05 13:45:47;;;;;;;9.20;4.43;;;;;;;;;;10416150;28;20036;-69
2023/02/05 13:50:51;;;;;;;3.85;3.28;;;;;;;;;;10397828;28;20024;-69
2023/02/05 13:55:54;;;;;;;3.70;2.35;;;;;;;;;;10416469;28;20124;-75
2023/02/05 14:01:04;;;;;;;6.05;2.60;;;;;;;;;;10417740;28;20377;-75
2023/02/05 14:06:30;;;;;;;4.03;3.22;;;;;;;;;;10411368;28;20530;-73
2023/02/05 14:11:57;;;;;;;6.88;4.90;;;;;;;;;;10405995;28;20128;-73
2023/02/05 14:16:58;;;;;;;13.82;8.25;;;;;;;;;;10404872;28;20124;-74
2023/02/05 14:22:00;;;;;;;15.32;8.75;;;;;;;;;;10400164;28;20064;-75
2023/02/05 14:27:00;;;;;;;16.38;9.65;;;;;;;;;;10403070;28;20037;-74
2023/02/05 14:32:01;;;;;;;14.75;9.18;;;;;;;;;;10406754;28;20040;-77
2023/02/05 14:37:01;;;;;;;13.70;9.15;;;;;;;;;;10406417;28;20105;-74
2023/02/05 14:42:04;;;;;;;15.88;9.38;;;;;;;;;;10415487;28;20300;-71
2023/02/05 14:47:04;;;;;;;13.32;9.60;;;;;;;;;;10401240;28;20172;-71
2023/02/05 14:52:06;;;;;;;13.47;9.27;;;;;;;;;;10422952;28;20033;-73
2023/02/05 14:57:25;;;;;;;15.65;9.38;;;;;;;;;;10430828;28;20022;-75
2023/02/05 15:02:44;;;;;;;14.25;9.50;;;;;;;;;;10411114;28;20155;-75
2023/02/05 15:07:45;;;;;;;13.35;8.65;;;;;;;;;;10415060;28;20124;-73
2023/02/05 15:12:46;;;;;;;18.25;8.15;;;;;;;;;;10423772;28;20031;-74
2023/02/05 15:17:49;;;;;;;9.98;6.90;;;;;;;;;;10427503;28;20029;-75
2023/02/05 15:23:00;;;;;;;12.15;7.75;;;;;;;;;;10416929;28;20168;-75
2023/02/05 15:28:02;;;;;;;13.70;8.85;;;;;;;;;;10394620;28;20033;-72
2023/02/05 15:33:07;;;;;;;12.73;8.68;;;;;;;;;;10405127;28;20122;-70
2023/02/05 15:38:10;;;;;;;9.93;8.05;;;;;;;;;;10393281;28;20503;-71
2023/02/05 15:43:22;;;;;;;13.35;10.13;;;;;;;;;;10404173;28;20034;-75
2023/02/05 15:48:26;;;;;;;12.02;10.10;;;;;;;;;;10409105;28;20092;-71
2023/02/05 15:53:32;;;;;;;18.88;13.50;;;;;;;;;;10415487;28;20064;-72
2023/02/05 15:58:32;;;;;;;15.32;11.70;;;;;;;;;;10421476;28;20094;-69
2023/02/05 16:03:34;;;;;;;16.23;10.93;;;;;;;;;;10403370;28;20029;-77
2023/02/05 16:08:35;;;;;;;14.68;9.88;;;;;;;;;;10416231;28;20469;-79
2023/02/05 16:13:35;;;;;;;18.00;16.10;;;;;;;;;;10411332;28;20029;-76
2023/02/05 16:18:37;;;;;;;11.13;9.48;;;;;;;;;;10401715;28;20121;-72
2023/02/05 16:23:44;;;;;;;13.32;9.25;;;;;;;;;;10382783;28;20135;-70
2023/02/05 16:28:51;;;;;;;13.40;9.27;;;;;;;;;;10414566;28;20028;-74
2023/02/05 16:33:51;;;;;;;11.88;8.55;;;;;;;;;;10404558;28;20407;-74
2023/02/05 16:38:52;;;;;;;15.07;9.73;;;;;;;;;;10424336;28;20094;-71
2023/02/05 16:43:53;;;;;;;13.32;8.95;;;;;;;;;;10396257;28;20462;-73
2023/02/05 16:48:55;;;;;;;19.50;11.45;;;;;;;;;;10410143;28;20812;-76
2023/02/05 16:53:55;;;;;;;18.27;8.70;;;;;;;;;;10415668;28;20032;-75
2023/02/05 16:58:57;;;;;;;16.60;10.80;;;;;;;;;;10396133;28;20542;-73
2023/02/05 17:03:57;;;;;;;18.35;10.80;;;;;;;;;;10414550;28;20589;-74
2023/02/05 17:08:59;;;;;;;20.10;11.73;;;;;;;;;;10424092;28;20060;-69
2023/02/05 17:14:19;;;;;;;22.15;12.52;;;;;;;;;;10405900;28;20550;-75
2023/02/05 17:19:27;;;;;;;15.00;10.30;;;;;;;;;;10420833;28;20045;-69
2023/02/05 17:24:27;;;;;;;11.60;9.40;;;;;;;;;;10420439;28;20034;-77
2023/02/05 17:29:27;;;;;;;18.20;9.20;;;;;;;;;;10395088;28;20033;-77
2023/02/05 17:34:27;;;;;;;24.33;8.05;;;;;;;;;;10401546;28;20017;-79
2023/02/05 17:39:28;;;;;;;14.02;7.95;;;;;;;;;;10419803;28;20509;-78
2023/02/05 17:44:28;;;;;;;19.50;8.45;;;;;;;;;;10416531;28;20347;-77
2023/02/05 17:49:29;;;;;;;13.00;8.60;;;;;;;;;;10415452;28;20021;-75
2023/02/05 17:54:29;;;;;;;20.77;9.63;;;;;;;;;;10404747;28;20045;-78
2023/02/05 17:59:30;;;;;;;13.00;8.48;;;;;;;;;;10401361;28;20513;-73
2023/02/05 18:04:30;;;;;;;11.63;7.57;;;;;;;;;;10409958;28;20411;-77
2023/02/05 18:09:30;;;;;;;13.63;8.05;;;;;;;;;;10404467;28;20025;-77
2023/02/05 18:14:30;;;;;;;16.85;8.70;;;;;;;;;;10399635;28;20411;-74
2023/02/05 18:19:33;;;;;;;11.85;8.23;;;;;;;;;;10406767;28;20251;-77
2023/02/05 18:24:37;;;;;;;14.27;9.05;;;;;;;;;;10405538;28;20538;-77
2023/02/05 18:29:38;;;;;;;10.15;6.63;;;;;;;;;;10420960;28;20059;-74
2023/02/05 18:34:38;;;;;;;14.68;8.20;;;;;;;;;;10417002;28;20082;-76
2023/02/05 18:39:39;;;;;;;12.38;10.27;;;;;;;;;;10452255;28;20028;-76
2023/02/05 18:44:39;;;;;;;13.35;7.07;;;;;;;;;;10456155;28;20032;-76
2023/02/05 18:49:40;;;;;;;12.23;7.55;;;;;;;;;;10447712;28;20177;-73
2023/02/05 18:54:40;;;;;;;13.15;8.95;;;;;;;;;;10454301;28;20058;-79
2023/02/05 18:59:40;;;;;;;18.35;9.07;;;;;;;;;;10452755;28;20020;-77
2023/02/05 19:04:41;;;;;;;14.77;9.17;;;;;;;;;;10390636;28;20019;-73
2023/02/05 19:09:42;;;;;;;13.87;9.03;;;;;;;;;;10416464;28;21384;-76
2023/02/05 19:14:42;;;;;;;12.65;8.63;;;;;;;;;;10409315;28;20528;-74
2023/02/05 19:19:42;;;;;;;10.63;8.40;;;;;;;;;;10427078;28;20051;-72
2023/02/05 19:24:43;;;;;;;14.70;7.97;;;;;;;;;;10416133;28;21503;-72
2023/02/05 19:29:43;;;;;;;15.60;8.55;;;;;;;;;;10416600;28;20035;-73
2023/02/05 19:34:45;;;;;;;11.73;8.40;;;;;;;;;;10423487;28;20037;-76
2023/02/05 19:39:45;;;;;;;14.55;9.60;;;;;;;;;;10416863;28;20585;-72
2023/02/05 19:44:46;;;;;;;12.80;8.60;;;;;;;;;;10403822;28;20022;-73
2023/02/05 19:49:46;;;;;;;20.37;11.97;;;;;;;;;;10408497;28;20021;-75
2023/02/05 19:54:46;;;;;;;14.00;9.60;;;;;;;;;;10426974;28;20324;-72
2023/02/05 19:59:46;;;;;;;14.60;10.45;;;;;;;;;;10421052;28;20699;-76
2023/02/05 20:04:47;;;;;;;19.08;11.82;;;;;;;;;;10416849;28;20029;-76
2023/02/05 20:09:48;;;;;;;17.33;11.27;;;;;;;;;;10457127;23;20049;-73
2023/02/05 20:14:48;;;;;;;15.35;11.23;;;;;;;;;;10428687;28;20030;-73
2023/02/05 20:19:48;;;;;;;16.10;12.15;;;;;;;;;;10438566;28;20032;-74
2023/02/05 20:24:48;;;;;;;17.30;11.43;;;;;;;;;;10444383;28;20111;-74
2023/02/05 20:35:07;;;;;;;23.58;14.15;;;;;;;;;;10442559;28;20029;-73
2023/02/05 20:40:08;;;;;;;17.55;15.90;;;;;;;;;;10444079;28;20025;-74
2023/02/05 20:45:08;;;;;;;14.45;11.73;;;;;;;;;;10446018;28;20033;-75
2023/02/05 20:50:09;;;;;;;11.53;9.93;;;;;;;;;;10441367;28;20040;-73
2023/02/05 20:55:09;;;;;;;15.98;8.50;;;;;;;;;;10440199;28;20639;-73
2023/02/05 21:00:10;;;;;;;14.07;9.93;;;;;;;;;;10443884;28;20052;-74
2023/02/05 21:05:10;;;;;;;13.18;10.82;;;;;;;;;;10444840;28;20040;-73
2023/02/05 21:10:10;;;;;;;12.35;10.73;;;;;;;;;;10443114;28;20045;-75
2023/02/05 21:15:11;;;;;;;14.40;10.30;;;;;;;;;;10437099;28;20055;-74
2023/02/05 21:20:11;;;;;;;21.38;10.27;;;;;;;;;;10441700;28;20035;-72
2023/02/05 21:25:11;;;;;;;10.73;9.70;;;;;;;;;;10442772;28;20535;-73
2023/02/05 21:30:12;;;;;;;17.30;10.10;;;;;;;;;;10444505;28;20541;-75
2023/02/05 21:35:12;;;;;;;14.55;10.40;;;;;;;;;;10443146;28;20442;-73
2023/02/05 21:40:12;;;;;;;15.70;10.27;;;;;;;;;;10434523;28;20486;-75
2023/02/05 21:45:12;;;;;;;10.98;8.30;;;;;;;;;;10440529;28;20021;-75
2023/02/05 21:50:13;;;;;;;11.03;9.20;;;;;;;;;;10445867;28;20025;-78
2023/02/05 21:55:13;;;;;;;14.73;7.22;;;;;;;;;;10441726;28;20108;-75
2023/02/05 22:00:13;;;;;;;11.52;7.40;;;;;;;;;;10444625;28;20043;-75
2023/02/05 22:05:14;;;;;;;11.60;8.57;;;;;;;;;;10442818;28;20029;-74
2023/02/05 22:10:14;;;;;;;14.50;8.55;;;;;;;;;;10435538;28;20341;-73
2023/02/05 22:15:14;;;;;;;9.07;8.20;;;;;;;;;;10437121;28;20175;-73
2023/02/05 22:20:15;;;;;;;8.68;6.82;;;;;;;;;;10445058;28;20024;-77
2023/02/05 22:25:15;;;;;;;11.85;8.15;;;;;;;;;;10444830;28;20037;-75
2023/02/05 22:30:15;;;;;;;15.43;6.87;;;;;;;;;;10443600;28;20037;-75
2023/02/05 22:35:16;;;;;;;12.90;9.83;;;;;;;;;;10444810;28;20021;-77
2023/02/05 22:40:16;;;;;;;13.50;7.17;;;;;;;;;;10444903;28;20115;-74
2023/02/05 22:45:16;;;;;;;10.57;7.63;;;;;;;;;;10423706;28;20095;-71
2023/02/05 22:50:16;;;;;;;15.57;9.02;;;;;;;;;;10440402;28;20103;-74
2023/02/05 22:55:17;;;;;;;13.07;7.38;;;;;;;;;;10452962;28;20025;-74
2023/02/05 23:00:17;;;;;;;13.23;11.90;;;;;;;;;;10421292;28;20403;-72
2023/02/05 23:05:17;;;;;;;10.57;7.63;;;;;;;;;;10434097;28;20041;-73
2023/02/05 23:10:18;;;;;;;14.85;12.20;;;;;;;;;;10452198;28;20317;-79
2023/02/05 23:15:19;;;;;;;15.82;9.02;;;;;;;;;;10416354;28;20013;-73
2023/02/05 23:20:19;;;;;;;10.27;7.32;;;;;;;;;;10451603;28;20028;-75
2023/02/05 23:25:20;;;;;;;12.63;6.68;;;;;;;;;;10451647;28;20032;-72
2023/02/05 23:30:20;;;;;;;14.45;9.52;;;;;;;;;;10448161;28;20045;-76
2023/02/05 23:35:20;;;;;;;15.03;10.00;;;;;;;;;;10450475;28;20094;-73
2023/02/05 23:40:20;;;;;;;11.02;5.90;;;;;;;;;;10452095;28;20512;-77
2023/02/05 23:45:21;;;;;;;10.55;8.90;;;;;;;;;;10451100;28;20399;-79
2023/02/05 23:50:21;;;;;;;11.65;8.15;;;;;;;;;;10450339;28;20028;-72
2023/02/05 23:55:21;;;;;;;20.38;10.55;;;;;;;;;;10451527;28;20032;-76
